Time,TemperatureF,DewpointF,PressureIn,WindDirection,WindDirectionDegrees,WindSpeedMPH,WindSpeedGustMPH,Humidity,HourlyPrecipIn,Conditions,Clouds,dailyrainin,SoftwareType,DateUTC
2013-12-04 00:00:00,-3.0,-9.0,-100.00,ENE,64,7.0,9.0,76,0.00,,,0.00,,2013-12-04 07:00:00,
2013-12-04 00:42:00,-3.0,-9.0,-100.00,ENE,64,7.0,9.0,76,0.00,,,0.00,,2013-12-04 07:42:00,
2013-12-04 00:52:00,-3.0,-9.0,-100.00,ENE,64,7.0,9.0,76,0.00,,,0.00,,2013-12-04 07:52:00,
2013-12-04 01:00:00,-3.0,-9.0,-100.00,ENE,58,3.0,4.0,76,0.00,,,0.00,,2013-12-04 08:00:00,
2013-12-04 01:42:00,-3.0,-9.0,-100.00,ENE,58,3.0,4.0,76,0.00,,,0.00,,2013-12-04 08:42:00,
2013-12-04 01:52:00,-3.0,-9.0,-100.00,ENE,58,3.0,4.0,76,0.00,,,0.00,,2013-12-04 08:52:00,
2013-12-04 02:00:00,-4.0,-10.0,-100.00,NE,53,5.0,6.0,75,0.00,,,0.00,,2013-12-04 09:00:00,
2013-12-04 02:53:00,-4.0,-10.0,-100.00,NE,53,5.0,6.0,75,0.00,,,0.00,,2013-12-04 09:53:00,
2013-12-04 04:00:00,-5.0,-11.0,-100.00,SE,146,1.0,2.0,74,0.00,,,0.00,,2013-12-04 11:00:00,
2013-12-04 04:42:00,-5.0,-11.0,-100.00,SE,146,1.0,2.0,74,0.00,,,0.00,,2013-12-04 11:42:00,
2013-12-04 04:53:00,-5.0,-11.0,-100.00,SE,146,1.0,2.0,74,0.00,,,0.00,,2013-12-04 11:53:00,
2013-12-04 05:00:00,-5.0,-11.0,-100.00,NW,324,3.0,3.0,74,0.00,,,0.00,,2013-12-04 12:00:00,
2013-12-04 05:42:00,-5.0,-11.0,-100.00,NW,324,3.0,3.0,74,0.00,,,0.00,,2013-12-04 12:42:00,
2013-12-04 05:52:00,-5.0,-11.0,-100.00,NW,324,3.0,3.0,74,0.00,,,0.00,,2013-12-04 12:52:00,
2013-12-04 06:00:00,-8.0,-14.0,-100.00,SW,224,2.0,3.0,72,0.00,,,0.00,,2013-12-04 13:00:00,
2013-12-04 06:42:00,-8.0,-14.0,-100.00,SW,224,2.0,3.0,72,0.00,,,0.00,,2013-12-04 13:42:00,
2013-12-04 06:52:00,-8.0,-14.0,-100.00,SW,224,2.0,3.0,72,0.00,,,0.00,,2013-12-04 13:52:00,
2013-12-04 07:00:00,-9.0,-16.0,-100.00,NE,51,0.0,2.0,72,0.00,,,0.00,,2013-12-04 14:00:00,
2013-12-04 07:42:00,-9.0,-16.0,-100.00,NE,51,0.0,2.0,72,0.00,,,0.00,,2013-12-04 14:42:00,
2013-12-04 07:52:00,-9.0,-16.0,-100.00,NE,51,0.0,2.0,72,0.00,,,0.00,,2013-12-04 14:52:00,
2013-12-04 08:00:00,-10.0,-16.0,-100.00,WSW,257,11.0,14.0,71,0.00,,,0.00,,2013-12-04 15:00:00,
2013-12-04 08:53:00,-10.0,-16.0,-100.00,WSW,257,11.0,14.0,71,0.00,,,0.00,,2013-12-04 15:53:00,
2013-12-04 09:00:00,-9.0,-15.0,-100.00,North,352,1.0,3.0,72,0.00,,,0.00,,2013-12-04 16:00:00,
2013-12-04 09:53:00,-9.0,-15.0,-100.00,North,352,1.0,3.0,72,0.00,,,0.00,,2013-12-04 16:53:00,
2013-12-04 10:00:00,-6.0,-12.0,-100.00,ENE,69,4.0,7.0,73,0.01,,,0.01,,2013-12-04 17:00:00,
2013-12-04 10:42:00,-6.0,-12.0,-100.00,ENE,69,4.0,7.0,73,0.01,,,0.01,,2013-12-04 17:42:00,
2013-12-04 10:52:00,-6.0,-12.0,-100.00,ENE,69,4.0,7.0,73,0.01,,,0.01,,2013-12-04 17:52:00,
2013-12-04 11:00:00,-3.0,-9.0,-100.00,NE,49,6.0,6.0,74,0.00,,,0.01,,2013-12-04 18:00:00,
2013-12-04 11:42:00,-3.0,-9.0,-100.00,NE,49,6.0,6.0,74,0.00,,,0.01,,2013-12-04 18:42:00,
2013-12-04 11:52:00,-3.0,-9.0,-100.00,NE,49,6.0,6.0,74,0.00,,,0.01,,2013-12-04 18:52:00,
2013-12-04 12:00:00,-3.0,-9.0,-100.00,ENE,67,5.0,6.0,75,0.00,,,0.01,,2013-12-04 19:00:00,
2013-12-04 12:52:00,-3.0,-9.0,-100.00,ENE,67,5.0,6.0,75,0.00,,,0.01,,2013-12-04 19:52:00,
2013-12-04 13:00:00,-3.0,-9.0,-100.00,NE,55,7.0,8.0,75,0.00,,,0.01,,2013-12-04 20:00:00,
2013-12-04 13:42:00,-3.0,-9.0,-100.00,NE,55,7.0,8.0,75,0.00,,,0.01,,2013-12-04 20:42:00,
2013-12-04 13:52:00,-3.0,-9.0,-100.00,NE,55,7.0,8.0,75,0.00,,,0.01,,2013-12-04 20:52:00,
2013-12-04 14:00:00,-3.0,-9.0,-100.00,ENE,57,5.0,7.0,75,0.01,,,0.02,,2013-12-04 21:00:00,
2013-12-04 14:44:00,-3.0,-9.0,-100.00,ENE,57,5.0,7.0,75,0.01,,,0.02,,2013-12-04 21:44:00,
2013-12-04 14:54:00,-3.0,-9.0,-100.00,ENE,57,5.0,7.0,75,0.01,,,0.02,,2013-12-04 21:54:00,
2013-12-04 15:00:00,-4.0,-9.0,-100.00,NE,53,5.0,6.0,75,-99.99,,,0.01,,2013-12-04 22:00:00,
2013-12-04 15:43:00,-4.0,-9.0,-100.00,NE,53,5.0,6.0,75,-99.99,,,0.01,,2013-12-04 22:43:00,
2013-12-04 15:53:00,-4.0,-9.0,-100.00,NE,53,5.0,6.0,75,-99.99,,,0.01,,2013-12-04 22:53:00,
2013-12-04 16:00:00,-5.0,-11.0,-100.00,SSE,148,0.0,1.0,74,0.00,,,0.01,,2013-12-04 23:00:00,
2013-12-04 16:42:00,-5.0,-11.0,-100.00,SSE,148,0.0,1.0,74,0.00,,,0.01,,2013-12-04 23:42:00,
2013-12-04 16:53:00,-5.0,-11.0,-100.00,SSE,148,0.0,1.0,74,0.00,,,0.01,,2013-12-04 23:53:00,
2013-12-04 17:00:00,-8.0,-14.0,-100.00,West,269,3.0,3.0,72,0.00,,,0.01,,2013-12-05 00:00:00,
2013-12-04 17:42:00,-8.0,-14.0,-100.00,West,269,3.0,3.0,72,0.00,,,0.01,,2013-12-05 00:42:00,
2013-12-04 17:52:00,-8.0,-14.0,-100.00,West,269,3.0,3.0,72,0.00,,,0.01,,2013-12-05 00:52:00,
2013-12-04 19:00:00,-8.0,-17.0,-100.00,West,267,11.0,13.0,64,0.00,,,0.01,,2013-12-05 02:00:00,
2013-12-04 19:52:00,-8.0,-17.0,-100.00,West,267,11.0,13.0,64,0.00,,,0.01,,2013-12-05 02:52:00,
2013-12-04 20:00:00,-8.0,-18.0,-100.00,WSW,242,11.0,13.0,61,0.00,,,0.01,,2013-12-05 03:00:00,
2013-12-04 20:43:00,-8.0,-18.0,-100.00,WSW,242,11.0,13.0,61,0.00,,,0.01,,2013-12-05 03:43:00,
2013-12-04 20:54:00,-8.0,-18.0,-100.00,WSW,242,11.0,13.0,61,0.00,,,0.01,,2013-12-05 03:54:00,
2013-12-04 21:00:00,-8.0,-19.0,-100.00,WSW,238,10.0,12.0,60,0.00,,,0.01,,2013-12-05 04:00:00,
2013-12-04 21:43:00,-8.0,-19.0,-100.00,WSW,238,10.0,12.0,60,0.00,,,0.01,,2013-12-05 04:43:00,
2013-12-04 21:53:00,-8.0,-19.0,-100.00,WSW,238,10.0,12.0,60,0.00,,,0.01,,2013-12-05 04:53:00,
2013-12-04 22:00:00,-8.0,-18.0,-100.00,WSW,251,8.0,11.0,58,0.00,,,0.01,,2013-12-05 05:00:00,
2013-12-04 22:43:00,-8.0,-18.0,-100.00,WSW,251,8.0,11.0,58,0.00,,,0.01,,2013-12-05 05:43:00,
2013-12-04 22:53:00,-8.0,-18.0,-100.00,WSW,251,8.0,11.0,58,0.00,,,0.01,,2013-12-05 05:53:00,
2013-12-04 23:00:00,-8.0,-19.0,-100.00,SW,235,9.0,11.0,58,0.00,,,0.01,,2013-12-05 06:00:00,
2013-12-04 23:42:00,-8.0,-19.0,-100.00,SW,235,9.0,11.0,58,0.00,,,0.01,,2013-12-05 06:42:00,
2013-12-04 23:52:00,-8.0,-19.0,-100.00,SW,235,9.0,11.0,58,0.00,,,0.01,,2013-12-05 06:52:00,